sensor_id;sensor_type;location;lat;lon;timestamp;pressure;altitude;pressure_sealevel;temperature;humidity
73429;BME280;61643;49.564;17.412;2023-04-26T00:00:29;97800.25;;;5.01;100.00
73429;BME280;61643;49.564;17.412;2023-04-26T00:02:57;97789.22;;;4.86;100.00
73429;BME280;61643;49.564;17.412;2023-04-26T00:05:24;97799.16;;;4.79;100.00
73429;BME280;61643;49.564;17.412;2023-04-26T00:07:50;97803.59;;;4.73;100.00
73429;BME280;61643;49.564;17.412;2023-04-26T00:10:16;97802.16;;;4.71;100.00
73429;BME280;61643;49.564;17.412;2023-04-26T00:12:42;97800.09;;;4.73;100.00
73429;BME280;61643;49.564;17.412;2023-04-26T00:15:08;97801.13;;;4.72;100.00
73429;BME280;61643;49.564;17.412;2023-04-26T00:17:34;97796.63;;;4.72;100.00
73429;BME280;61643;49.564;17.412;2023-04-26T00:20:01;97789.53;;;4.78;100.00
73429;BME280;61643;49.564;17.412;2023-04-26T00:22:27;97792.44;;;4.76;100.00
73429;BME280;61643;49.564;17.412;2023-04-26T00:24:53;97795.91;;;4.65;100.00
73429;BME280;61643;49.564;17.412;2023-04-26T00:27:19;97795.53;;;4.50;100.00
73429;BME280;61643;49.564;17.412;2023-04-26T00:29:45;97803.31;;;4.52;100.00
73429;BME280;61643;49.564;17.412;2023-04-26T00:32:11;97803.47;;;4.38;100.00
73429;BME280;61643;49.564;17.412;2023-04-26T00:34:37;97801.41;;;4.40;100.00
73429;BME280;61643;49.564;17.412;2023-04-26T00:37:04;97808.94;;;4.43;100.00
73429;BME280;61643;49.564;17.412;2023-04-26T00:39:30;97811.13;;;4.35;100.00
73429;BME280;61643;49.564;17.412;2023-04-26T00:41:56;97815.19;;;4.37;100.00
73429;BME280;61643;49.564;17.412;2023-04-26T00:44:22;97821.88;;;4.28;100.00
73429;BME280;61643;49.564;17.412;2023-04-26T00:46:51;97821.50;;;4.25;100.00
73429;BME280;61643;49.564;17.412;2023-04-26T00:49:20;97827.84;;;4.12;100.00
73429;BME280;61643;49.564;17.412;2023-04-26T00:51:47;97833.00;;;4.07;100.00
73429;BME280;61643;49.564;17.412;2023-04-26T00:54:14;97838.34;;;4.07;100.00
73429;BME280;61643;49.564;17.412;2023-04-26T00:56:41;97846.91;;;4.09;100.00
73429;BME280;61643;49.564;17.412;2023-04-26T00:59:07;97841.59;;;4.09;100.00
73429;BME280;61643;49.564;17.412;2023-04-26T01:01:34;97830.81;;;4.04;99.98
73429;BME280;61643;49.564;17.412;2023-04-26T01:04:00;97851.75;;;4.01;99.71
73429;BME280;61643;49.564;17.412;2023-04-26T01:06:32;97849.59;;;3.91;100.00
73429;BME280;61643;49.564;17.412;2023-04-26T01:09:01;97855.44;;;3.81;99.79
73429;BME280;61643;49.564;17.412;2023-04-26T01:11:28;97856.25;;;3.82;100.00
73429;BME280;61643;49.564;17.412;2023-04-26T01:13:55;97845.69;;;3.75;100.00
73429;BME280;61643;49.564;17.412;2023-04-26T01:16:22;97855.66;;;3.80;100.00
73429;BME280;61643;49.564;17.412;2023-04-26T01:18:52;97858.19;;;3.57;100.00
73429;BME280;61643;49.564;17.412;2023-04-26T01:21:24;97851.09;;;3.69;100.00
73429;BME280;61643;49.564;17.412;2023-04-26T01:23:51;97854.13;;;3.72;99.52
73429;BME280;61643;49.564;17.412;2023-04-26T01:26:17;97847.81;;;3.67;100.00
73429;BME280;61643;49.564;17.412;2023-04-26T01:28:43;97859.56;;;3.59;100.00
73429;BME280;61643;49.564;17.412;2023-04-26T01:31:11;97855.69;;;3.62;100.00
73429;BME280;61643;49.564;17.412;2023-04-26T01:33:37;97857.16;;;3.58;100.00
73429;BME280;61643;49.564;17.412;2023-04-26T01:36:08;97855.16;;;3.53;100.00
73429;BME280;61643;49.564;17.412;2023-04-26T01:38:34;97861.50;;;3.52;100.00
73429;BME280;61643;49.564;17.412;2023-04-26T01:41:00;97853.13;;;3.48;100.00
73429;BME280;61643;49.564;17.412;2023-04-26T01:43:26;97863.72;;;3.55;100.00
73429;BME280;61643;49.564;17.412;2023-04-26T01:45:52;97854.78;;;3.50;100.00
73429;BME280;61643;49.564;17.412;2023-04-26T01:48:18;97859.38;;;3.61;100.00
73429;BME280;61643;49.564;17.412;2023-04-26T01:50:44;97864.25;;;3.64;100.00
73429;BME280;61643;49.564;17.412;2023-04-26T01:53:10;97858.72;;;3.65;100.00
73429;BME280;61643;49.564;17.412;2023-04-26T01:55:37;97863.97;;;3.72;100.00
73429;BME280;61643;49.564;17.412;2023-04-26T01:58:03;97854.72;;;3.74;100.00
73429;BME280;61643;49.564;17.412;2023-04-26T02:00:29;97861.50;;;3.70;100.00
73429;BME280;61643;49.564;17.412;2023-04-26T02:02:55;97868.31;;;3.66;100.00
73429;BME280;61643;49.564;17.412;2023-04-26T02:05:22;97871.69;;;3.55;99.59
73429;BME280;61643;49.564;17.412;2023-04-26T02:07:49;97868.44;;;3.53;100.00
73429;BME280;61643;49.564;17.412;2023-04-26T02:10:15;97876.06;;;3.50;100.00
73429;BME280;61643;49.564;17.412;2023-04-26T02:12:41;97871.63;;;3.43;100.00
73429;BME280;61643;49.564;17.412;2023-04-26T02:15:08;97869.38;;;3.40;100.00
73429;BME280;61643;49.564;17.412;2023-04-26T02:17:34;97871.53;;;3.32;99.79
73429;BME280;61643;49.564;17.412;2023-04-26T02:20:03;97873.19;;;3.26;100.00
73429;BME280;61643;49.564;17.412;2023-04-26T02:22:29;97870.59;;;3.20;100.00
73429;BME280;61643;49.564;17.412;2023-04-26T02:24:55;97869.84;;;3.13;100.00
73429;BME280;61643;49.564;17.412;2023-04-26T02:27:21;97866.38;;;3.12;100.00
73429;BME280;61643;49.564;17.412;2023-04-26T02:29:48;97874.41;;;3.06;100.00
73429;BME280;61643;49.564;17.412;2023-04-26T02:32:14;97869.72;;;3.01;100.00
73429;BME280;61643;49.564;17.412;2023-04-26T02:34:40;97857.97;;;2.90;100.00
73429;BME280;61643;49.564;17.412;2023-04-26T02:37:06;97861.44;;;2.91;100.00
73429;BME280;61643;49.564;17.412;2023-04-26T02:39:32;97862.31;;;2.85;100.00
73429;BME280;61643;49.564;17.412;2023-04-26T02:41:58;97868.66;;;2.84;100.00
73429;BME280;61643;49.564;17.412;2023-04-26T02:44:24;97861.31;;;2.79;100.00
73429;BME280;61643;49.564;17.412;2023-04-26T02:46:53;97864.34;;;2.83;100.00
73429;BME280;61643;49.564;17.412;2023-04-26T02:49:19;97859.72;;;2.78;100.00
73429;BME280;61643;49.564;17.412;2023-04-26T02:51:45;97856.75;;;2.86;100.00
73429;BME280;61643;49.564;17.412;2023-04-26T02:54:11;97862.00;;;3.00;100.00
73429;BME280;61643;49.564;17.412;2023-04-26T02:56:37;97866.53;;;2.92;100.00
73429;BME280;61643;49.564;17.412;2023-04-26T02:59:03;97871.56;;;3.01;100.00
73429;BME280;61643;49.564;17.412;2023-04-26T03:01:29;97867.44;;;2.80;100.00
73429;BME280;61643;49.564;17.412;2023-04-26T03:03:55;97863.22;;;2.72;100.00
73429;BME280;61643;49.564;17.412;2023-04-26T03:06:21;97864.84;;;2.73;100.00
73429;BME280;61643;49.564;17.412;2023-04-26T03:08:47;97866.69;;;2.73;100.00
73429;BME280;61643;49.564;17.412;2023-04-26T03:11:13;97863.06;;;2.67;100.00
73429;BME280;61643;49.564;17.412;2023-04-26T03:13:39;97874.84;;;2.78;100.00
73429;BME280;61643;49.564;17.412;2023-04-26T03:16:05;97874.22;;;2.76;100.00
73429;BME280;61643;49.564;17.412;2023-04-26T03:18:31;97860.22;;;2.62;100.00
73429;BME280;61643;49.564;17.412;2023-04-26T03:20:57;97879.00;;;2.67;100.00
73429;BME280;61643;49.564;17.412;2023-04-26T03:23:23;97873.00;;;2.72;100.00
73429;BME280;61643;49.564;17.412;2023-04-26T03:25:50;97873.78;;;2.79;100.00
73429;BME280;61643;49.564;17.412;2023-04-26T03:28:16;97875.03;;;2.76;100.00
73429;BME280;61643;49.564;17.412;2023-04-26T03:30:42;97884.00;;;2.82;100.00
73429;BME280;61643;49.564;17.412;2023-04-26T03:33:08;97881.13;;;2.83;100.00
73429;BME280;61643;49.564;17.412;2023-04-26T03:35:34;97884.97;;;2.87;100.00
73429;BME280;61643;49.564;17.412;2023-04-26T03:38:00;97882.63;;;2.97;100.00
73429;BME280;61643;49.564;17.412;2023-04-26T03:40:26;97891.50;;;2.91;99.87
73429;BME280;61643;49.564;17.412;2023-04-26T03:42:52;97888.66;;;2.55;100.00
73429;BME280;61643;49.564;17.412;2023-04-26T03:45:18;97895.22;;;2.53;100.00
73429;BME280;61643;49.564;17.412;2023-04-26T03:47:44;97904.66;;;2.48;100.00
73429;BME280;61643;49.564;17.412;2023-04-26T03:50:10;97908.13;;;2.49;100.00
73429;BME280;61643;49.564;17.412;2023-04-26T03:52:36;97909.19;;;2.41;100.00
73429;BME280;61643;49.564;17.412;2023-04-26T03:55:02;97914.72;;;2.33;100.00
73429;BME280;61643;49.564;17.412;2023-04-26T03:57:28;97909.22;;;2.28;100.00
73429;BME280;61643;49.564;17.412;2023-04-26T03:59:54;97925.31;;;2.40;100.00
73429;BME280;61643;49.564;17.412;2023-04-26T04:02:20;97915.09;;;2.43;100.00
73429;BME280;61643;49.564;17.412;2023-04-26T04:04:46;97923.19;;;2.55;100.00
73429;BME280;61643;49.564;17.412;2023-04-26T04:07:12;97922.38;;;2.55;100.00
73429;BME280;61643;49.564;17.412;2023-04-26T04:09:38;97921.78;;;2.53;100.00
73429;BME280;61643;49.564;17.412;2023-04-26T04:12:04;97925.44;;;2.58;100.00
73429;BME280;61643;49.564;17.412;2023-04-26T04:14:30;97930.69;;;2.65;100.00
73429;BME280;61643;49.564;17.412;2023-04-26T04:16:57;97928.66;;;2.67;100.00
73429;BME280;61643;49.564;17.412;2023-04-26T04:19:24;97934.94;;;2.72;100.00
73429;BME280;61643;49.564;17.412;2023-04-26T04:21:50;97923.50;;;2.78;100.00
73429;BME280;61643;49.564;17.412;2023-04-26T04:24:16;97927.69;;;2.92;100.00
73429;BME280;61643;49.564;17.412;2023-04-26T04:26:42;97924.97;;;2.99;100.00
73429;BME280;61643;49.564;17.412;2023-04-26T04:29:08;97926.63;;;3.25;100.00
73429;BME280;61643;49.564;17.412;2023-04-26T04:31:35;97927.31;;;3.14;100.00
73429;BME280;61643;49.564;17.412;2023-04-26T04:34:01;97928.72;;;3.41;100.00
73429;BME280;61643;49.564;17.412;2023-04-26T04:36:27;97934.19;;;3.71;99.80
73429;BME280;61643;49.564;17.412;2023-04-26T04:38:53;97940.44;;;4.01;97.96
73429;BME280;61643;49.564;17.412;2023-04-26T04:41:19;97943.09;;;4.01;97.82
73429;BME280;61643;49.564;17.412;2023-04-26T04:43:47;97944.78;;;4.32;97.01
73429;BME280;61643;49.564;17.412;2023-04-26T04:46:12;97947.03;;;4.65;95.87
73429;BME280;61643;49.564;17.412;2023-04-26T04:48:39;97949.56;;;4.89;93.44
73429;BME280;61643;49.564;17.412;2023-04-26T04:51:06;97948.34;;;5.15;91.88
73429;BME280;61643;49.564;17.412;2023-04-26T04:53:33;97955.94;;;5.41;90.52
73429;BME280;61643;49.564;17.412;2023-04-26T04:55:59;97955.84;;;5.60;90.27
73429;BME280;61643;49.564;17.412;2023-04-26T04:58:25;97953.88;;;5.55;89.89
73429;BME280;61643;49.564;17.412;2023-04-26T05:00:51;97952.50;;;5.64;90.77
73429;BME280;61643;49.564;17.412;2023-04-26T05:03:19;97955.75;;;5.78;89.34
73429;BME280;61643;49.564;17.412;2023-04-26T05:05:44;97946.94;;;5.77;87.60
73429;BME280;61643;49.564;17.412;2023-04-26T05:08:10;97957.47;;;5.84;86.24
73429;BME280;61643;49.564;17.412;2023-04-26T05:10:37;97957.75;;;5.94;87.61
73429;BME280;61643;49.564;17.412;2023-04-26T05:13:03;97967.34;;;5.60;88.23
73429;BME280;61643;49.564;17.412;2023-04-26T05:15:30;97979.78;;;5.78;88.33
73429;BME280;61643;49.564;17.412;2023-04-26T05:17:56;97976.88;;;5.79;88.78
73429;BME280;61643;49.564;17.412;2023-04-26T05:20:24;97971.53;;;5.79;88.98
73429;BME280;61643;49.564;17.412;2023-04-26T05:22:50;97979.81;;;5.89;89.43
73429;BME280;61643;49.564;17.412;2023-04-26T05:25:16;97973.66;;;5.89;88.04
73429;BME280;61643;49.564;17.412;2023-04-26T05:27:42;97969.31;;;5.65;85.95
73429;BME280;61643;49.564;17.412;2023-04-26T05:30:10;97977.09;;;5.66;85.92
73429;BME280;61643;49.564;17.412;2023-04-26T05:32:37;97980.22;;;5.52;85.48
73429;BME280;61643;49.564;17.412;2023-04-26T05:35:03;97984.44;;;5.71;86.05
73429;BME280;61643;49.564;17.412;2023-04-26T05:37:29;97989.75;;;5.82;84.99
73429;BME280;61643;49.564;17.412;2023-04-26T05:39:56;97992.50;;;5.41;87.25
73429;BME280;61643;49.564;17.412;2023-04-26T05:42:22;97993.84;;;5.20;86.22
73429;BME280;61643;49.564;17.412;2023-04-26T05:44:48;97998.72;;;4.93;87.72
73429;BME280;61643;49.564;17.412;2023-04-26T05:47:14;97990.38;;;4.90;87.34
73429;BME280;61643;49.564;17.412;2023-04-26T05:49:40;97995.81;;;5.13;88.22
73429;BME280;61643;49.564;17.412;2023-04-26T05:52:06;97995.19;;;5.53;87.39
73429;BME280;61643;49.564;17.412;2023-04-26T05:54:32;97990.22;;;5.56;85.17
73429;BME280;61643;49.564;17.412;2023-04-26T05:56:58;97999.59;;;5.59;86.03
73429;BME280;61643;49.564;17.412;2023-04-26T05:59:23;98000.28;;;5.42;85.61
73429;BME280;61643;49.564;17.412;2023-04-26T06:01:49;98002.31;;;5.29;86.87
73429;BME280;61643;49.564;17.412;2023-04-26T06:04:16;98007.31;;;5.25;87.81
73429;BME280;61643;49.564;17.412;2023-04-26T06:06:42;98000.25;;;5.31;88.30
73429;BME280;61643;49.564;17.412;2023-04-26T06:09:08;98004.97;;;5.17;86.24
73429;BME280;61643;49.564;17.412;2023-04-26T06:11:34;98004.41;;;5.27;85.92
73429;BME280;61643;49.564;17.412;2023-04-26T06:14:00;98010.22;;;5.35;86.58
73429;BME280;61643;49.564;17.412;2023-04-26T06:16:26;98009.81;;;5.62;84.77
73429;BME280;61643;49.564;17.412;2023-04-26T06:18:52;98012.06;;;5.76;86.33
73429;BME280;61643;49.564;17.412;2023-04-26T06:21:18;98013.09;;;5.75;84.99
73429;BME280;61643;49.564;17.412;2023-04-26T06:23:44;98009.56;;;5.93;86.51
73429;BME280;61643;49.564;17.412;2023-04-26T06:26:11;98011.63;;;6.03;84.27
73429;BME280;61643;49.564;17.412;2023-04-26T06:28:38;98021.03;;;6.05;84.02
73429;BME280;61643;49.564;17.412;2023-04-26T06:31:04;98007.59;;;6.00;82.16
73429;BME280;61643;49.564;17.412;2023-04-26T06:33:30;98023.72;;;6.05;84.02
73429;BME280;61643;49.564;17.412;2023-04-26T06:35:56;98017.91;;;6.08;84.86
73429;BME280;61643;49.564;17.412;2023-04-26T06:38:22;98012.69;;;6.25;84.84
73429;BME280;61643;49.564;17.412;2023-04-26T06:40:48;98014.41;;;6.31;83.42
73429;BME280;61643;49.564;17.412;2023-04-26T06:43:13;98013.72;;;6.35;83.02
73429;BME280;61643;49.564;17.412;2023-04-26T06:45:39;98011.03;;;6.35;81.37
73429;BME280;61643;49.564;17.412;2023-04-26T06:48:06;98010.88;;;6.54;80.50
73429;BME280;61643;49.564;17.412;2023-04-26T06:50:32;98006.31;;;6.66;82.21
73429;BME280;61643;49.564;17.412;2023-04-26T06:52:58;98024.78;;;6.79;82.55
73429;BME280;61643;49.564;17.412;2023-04-26T06:55:24;98024.88;;;6.84;82.11
73429;BME280;61643;49.564;17.412;2023-04-26T06:57:50;98038.16;;;6.79;80.55
73429;BME280;61643;49.564;17.412;2023-04-26T07:00:16;98030.69;;;6.81;82.08
73429;BME280;61643;49.564;17.412;2023-04-26T07:02:43;98028.22;;;6.91;82.68
73429;BME280;61643;49.564;17.412;2023-04-26T07:05:09;98041.81;;;7.01;82.12
73429;BME280;61643;49.564;17.412;2023-04-26T07:07:35;98050.16;;;6.65;80.27
73429;BME280;61643;49.564;17.412;2023-04-26T07:10:00;98044.81;;;6.76;82.50
73429;BME280;61643;49.564;17.412;2023-04-26T07:12:26;98043.59;;;6.84;81.02
73429;BME280;61643;49.564;17.412;2023-04-26T07:14:52;98040.00;;;6.90;79.86
73429;BME280;61643;49.564;17.412;2023-04-26T07:17:18;98044.38;;;6.96;80.71
73429;BME280;61643;49.564;17.412;2023-04-26T07:19:46;98048.75;;;6.74;78.96
73429;BME280;61643;49.564;17.412;2023-04-26T07:22:11;98043.50;;;6.79;79.87
73429;BME280;61643;49.564;17.412;2023-04-26T07:24:37;98052.44;;;6.84;79.35
73429;BME280;61643;49.564;17.412;2023-04-26T07:27:03;98053.22;;;6.97;78.28
73429;BME280;61643;49.564;17.412;2023-04-26T07:29:29;98048.53;;;7.04;80.63
73429;BME280;61643;49.564;17.412;2023-04-26T07:31:55;98048.66;;;7.09;77.96
73429;BME280;61643;49.564;17.412;2023-04-26T07:34:22;98048.41;;;7.10;77.34
73429;BME280;61643;49.564;17.412;2023-04-26T07:36:48;98046.78;;;7.09;78.89
73429;BME280;61643;49.564;17.412;2023-04-26T07:39:14;98048.66;;;7.09;77.94
73429;BME280;61643;49.564;17.412;2023-04-26T07:41:40;98051.84;;;7.22;77.39
73429;BME280;61643;49.564;17.412;2023-04-26T07:44:06;98051.94;;;7.27;77.59
73429;BME280;61643;49.564;17.412;2023-04-26T07:46:33;98049.47;;;7.37;77.85
73429;BME280;61643;49.564;17.412;2023-04-26T07:48:59;98053.84;;;7.43;77.13
73429;BME280;61643;49.564;17.412;2023-04-26T07:51:26;98050.78;;;7.52;77.02
73429;BME280;61643;49.564;17.412;2023-04-26T07:53:52;98047.81;;;7.20;75.11
73429;BME280;61643;49.564;17.412;2023-04-26T07:56:20;98052.41;;;7.24;74.11
73429;BME280;61643;49.564;17.412;2023-04-26T07:58:46;98048.84;;;7.19;74.07
73429;BME280;61643;49.564;17.412;2023-04-26T08:01:12;98056.09;;;7.35;75.65
73429;BME280;61643;49.564;17.412;2023-04-26T08:03:38;98065.06;;;7.40;74.79
73429;BME280;61643;49.564;17.412;2023-04-26T08:06:04;98059.88;;;7.51;75.53
73429;BME280;61643;49.564;17.412;2023-04-26T08:08:30;98057.47;;;7.66;74.10
73429;BME280;61643;49.564;17.412;2023-04-26T08:10:58;98055.34;;;7.68;71.12
73429;BME280;61643;49.564;17.412;2023-04-26T08:13:24;98058.19;;;7.78;72.81
73429;BME280;61643;49.564;17.412;2023-04-26T08:15:50;98058.78;;;7.80;72.61
73429;BME280;61643;49.564;17.412;2023-04-26T08:18:15;98056.84;;;7.92;71.87
73429;BME280;61643;49.564;17.412;2023-04-26T08:20:41;98055.94;;;7.86;66.61
73429;BME280;61643;49.564;17.412;2023-04-26T08:23:08;98052.19;;;8.04;70.23
73429;BME280;61643;49.564;17.412;2023-04-26T08:25:34;98060.72;;;8.01;68.83
73429;BME280;61643;49.564;17.412;2023-04-26T08:28:00;98053.09;;;8.10;68.87
73429;BME280;61643;49.564;17.412;2023-04-26T08:30:27;98056.97;;;8.19;69.01
73429;BME280;61643;49.564;17.412;2023-04-26T08:32:53;98061.25;;;8.31;69.54
73429;BME280;61643;49.564;17.412;2023-04-26T08:35:19;98061.56;;;8.35;67.29
73429;BME280;61643;49.564;17.412;2023-04-26T08:37:46;98064.44;;;8.50;67.23
73429;BME280;61643;49.564;17.412;2023-04-26T08:40:12;98062.16;;;8.59;67.65
73429;BME280;61643;49.564;17.412;2023-04-26T08:42:39;98074.38;;;8.50;67.17
73429;BME280;61643;49.564;17.412;2023-04-26T08:45:07;98062.75;;;8.11;67.33
73429;BME280;61643;49.564;17.412;2023-04-26T08:47:39;98063.81;;;8.26;65.97
73429;BME280;61643;49.564;17.412;2023-04-26T08:50:10;98058.69;;;8.08;65.31
73429;BME280;61643;49.564;17.412;2023-04-26T08:52:38;98059.28;;;8.10;63.91
73429;BME280;61643;49.564;17.412;2023-04-26T08:55:07;98064.97;;;8.14;64.75
73429;BME280;61643;49.564;17.412;2023-04-26T08:57:35;98062.75;;;8.27;65.32
73429;BME280;61643;49.564;17.412;2023-04-26T09:00:02;98070.22;;;8.25;63.26
73429;BME280;61643;49.564;17.412;2023-04-26T09:02:35;98056.25;;;8.40;64.02
73429;BME280;61643;49.564;17.412;2023-04-26T09:05:01;98067.53;;;8.59;66.93
73429;BME280;61643;49.564;17.412;2023-04-26T09:09:57;98061.69;;;8.45;63.75
73429;BME280;61643;49.564;17.412;2023-04-26T09:12:23;98068.19;;;8.49;65.21
73429;BME280;61643;49.564;17.412;2023-04-26T09:14:50;98065.94;;;8.41;59.86
73429;BME280;61643;49.564;17.412;2023-04-26T09:17:30;98070.75;;;8.39;59.42
73429;BME280;61643;49.564;17.412;2023-04-26T09:19:58;98073.06;;;8.52;60.66
73429;BME280;61643;49.564;17.412;2023-04-26T09:22:30;98073.16;;;8.57;59.68
73429;BME280;61643;49.564;17.412;2023-04-26T09:24:57;98070.41;;;8.74;54.88
73429;BME280;61643;49.564;17.412;2023-04-26T09:27:42;98066.81;;;8.85;58.86
73429;BME280;61643;49.564;17.412;2023-04-26T09:30:12;98070.84;;;8.87;57.19
73429;BME280;61643;49.564;17.412;2023-04-26T09:35:21;98075.50;;;8.75;55.70
73429;BME280;61643;49.564;17.412;2023-04-26T09:37:52;98082.16;;;8.51;51.98
73429;BME280;61643;49.564;17.412;2023-04-26T09:40:19;98076.09;;;8.39;54.43
73429;BME280;61643;49.564;17.412;2023-04-26T09:42:46;98079.31;;;8.58;58.19
73429;BME280;61643;49.564;17.412;2023-04-26T09:45:12;98074.44;;;8.55;55.34
73429;BME280;61643;49.564;17.412;2023-04-26T09:47:38;98062.09;;;8.75;57.64
73429;BME280;61643;49.564;17.412;2023-04-26T09:50:04;98068.25;;;8.93;54.51
73429;BME280;61643;49.564;17.412;2023-04-26T09:52:30;98058.78;;;9.12;55.53
73429;BME280;61643;49.564;17.412;2023-04-26T09:54:58;98066.31;;;9.10;54.22
73429;BME280;61643;49.564;17.412;2023-04-26T09:57:24;98059.91;;;9.16;53.22
73429;BME280;61643;49.564;17.412;2023-04-26T09:59:51;98071.66;;;9.10;53.45
73429;BME280;61643;49.564;17.412;2023-04-26T10:02:20;98074.97;;;8.73;54.26
73429;BME280;61643;49.564;17.412;2023-04-26T10:04:48;98064.59;;;8.60;55.55
73429;BME280;61643;49.564;17.412;2023-04-26T10:07:17;98074.84;;;8.47;55.34
73429;BME280;61643;49.564;17.412;2023-04-26T10:09:43;98058.25;;;8.66;57.13
73429;BME280;61643;49.564;17.412;2023-04-26T10:12:10;98065.59;;;8.76;57.79
73429;BME280;61643;49.564;17.412;2023-04-26T10:14:37;98056.56;;;8.82;56.07
73429;BME280;61643;49.564;17.412;2023-04-26T10:17:04;98053.75;;;8.94;56.34
73429;BME280;61643;49.564;17.412;2023-04-26T10:19:34;98059.06;;;9.10;56.42
73429;BME280;61643;49.564;17.412;2023-04-26T10:22:07;98059.59;;;9.34;54.35
73429;BME280;61643;49.564;17.412;2023-04-26T10:24:35;98068.00;;;9.43;53.20
73429;BME280;61643;49.564;17.412;2023-04-26T10:27:02;98069.59;;;9.38;53.16
73429;BME280;61643;49.564;17.412;2023-04-26T10:32:20;98062.63;;;8.94;52.47
73429;BME280;61643;49.564;17.412;2023-04-26T10:35:28;98063.22;;;9.01;57.35
73429;BME280;61643;49.564;17.412;2023-04-26T10:45:41;98064.91;;;9.29;48.85
73429;BME280;61643;49.564;17.412;2023-04-26T10:48:14;98065.13;;;9.22;50.23
73429;BME280;61643;49.564;17.412;2023-04-26T10:59:07;98060.97;;;9.36;52.88
73429;BME280;61643;49.564;17.412;2023-04-26T11:01:34;98057.13;;;9.54;54.26
73429;BME280;61643;49.564;17.412;2023-04-26T11:04:05;98060.63;;;9.55;53.19
73429;BME280;61643;49.564;17.412;2023-04-26T11:06:54;98057.72;;;9.61;51.65
73429;BME280;61643;49.564;17.412;2023-04-26T11:09:39;98055.06;;;9.66;51.16
73429;BME280;61643;49.564;17.412;2023-04-26T11:12:10;98056.84;;;9.82;53.45
73429;BME280;61643;49.564;17.412;2023-04-26T11:14:37;98047.03;;;9.98;51.21
73429;BME280;61643;49.564;17.412;2023-04-26T11:17:04;98033.09;;;10.06;52.43
73429;BME280;61643;49.564;17.412;2023-04-26T11:19:31;98053.84;;;10.11;50.63
73429;BME280;61643;49.564;17.412;2023-04-26T11:21:58;98052.22;;;9.78;51.19
73429;BME280;61643;49.564;17.412;2023-04-26T11:24:26;98058.56;;;9.67;53.18
73429;BME280;61643;49.564;17.412;2023-04-26T11:26:53;98048.91;;;9.39;53.93
73429;BME280;61643;49.564;17.412;2023-04-26T11:29:19;98054.56;;;9.16;53.45
73429;BME280;61643;49.564;17.412;2023-04-26T11:31:54;98070.97;;;8.98;53.46
73429;BME280;61643;49.564;17.412;2023-04-26T11:34:32;98062.09;;;8.75;56.28
73429;BME280;61643;49.564;17.412;2023-04-26T11:37:00;98070.09;;;8.70;57.19
73429;BME280;61643;49.564;17.412;2023-04-26T11:39:27;98057.28;;;8.56;55.14
73429;BME280;61643;49.564;17.412;2023-04-26T11:42:06;98073.84;;;8.69;54.97
73429;BME280;61643;49.564;17.412;2023-04-26T11:44:33;98064.09;;;8.63;54.08
73429;BME280;61643;49.564;17.412;2023-04-26T11:47:00;98063.06;;;8.64;54.82
73429;BME280;61643;49.564;17.412;2023-04-26T11:49:29;98071.22;;;8.74;56.47
73429;BME280;61643;49.564;17.412;2023-04-26T11:51:56;98071.66;;;8.88;55.90
73429;BME280;61643;49.564;17.412;2023-04-26T11:54:33;98073.31;;;8.89;53.65
73429;BME280;61643;49.564;17.412;2023-04-26T11:57:00;98067.63;;;8.85;52.02
73429;BME280;61643;49.564;17.412;2023-04-26T11:59:37;98080.16;;;8.80;54.45
73429;BME280;61643;49.564;17.412;2023-04-26T12:02:06;98078.66;;;8.67;52.72
73429;BME280;61643;49.564;17.412;2023-04-26T12:04:33;98075.25;;;8.55;53.26
73429;BME280;61643;49.564;17.412;2023-04-26T12:06:59;98076.81;;;8.51;52.75
73429;BME280;61643;49.564;17.412;2023-04-26T12:09:29;98066.47;;;8.60;53.37
73429;BME280;61643;49.564;17.412;2023-04-26T12:12:00;98068.91;;;8.83;51.36
73429;BME280;61643;49.564;17.412;2023-04-26T12:14:36;98062.91;;;9.19;53.84
73429;BME280;61643;49.564;17.412;2023-04-26T12:17:04;98066.09;;;9.65;52.58
73429;BME280;61643;49.564;17.412;2023-04-26T12:19:38;98061.88;;;10.06;52.43
73429;BME280;61643;49.564;17.412;2023-04-26T12:22:06;98070.97;;;10.26;48.99
73429;BME280;61643;49.564;17.412;2023-04-26T12:24:32;98070.78;;;10.43;48.89
73429;BME280;61643;49.564;17.412;2023-04-26T12:27:01;98054.16;;;10.51;49.62
73429;BME280;61643;49.564;17.412;2023-04-26T12:29:27;98057.72;;;10.62;48.20
73429;BME280;61643;49.564;17.412;2023-04-26T12:31:58;98062.31;;;10.61;47.57
73429;BME280;61643;49.564;17.412;2023-04-26T12:34:25;98050.78;;;10.29;46.68
73429;BME280;61643;49.564;17.412;2023-04-26T12:36:51;98058.69;;;10.09;47.57
73429;BME280;61643;49.564;17.412;2023-04-26T12:39:17;98063.56;;;9.80;46.98
73429;BME280;61643;49.564;17.412;2023-04-26T12:41:43;98072.56;;;9.42;47.35
73429;BME280;61643;49.564;17.412;2023-04-26T12:44:10;98072.28;;;9.38;50.38
73429;BME280;61643;49.564;17.412;2023-04-26T12:46:36;98069.50;;;9.33;49.05
73429;BME280;61643;49.564;17.412;2023-04-26T12:49:03;98068.47;;;9.34;49.14
73429;BME280;61643;49.564;17.412;2023-04-26T12:51:29;98068.56;;;9.45;47.36
73429;BME280;61643;49.564;17.412;2023-04-26T12:53:56;98074.50;;;9.73;49.61
73429;BME280;61643;49.564;17.412;2023-04-26T12:56:23;98072.53;;;9.96;48.27
73429;BME280;61643;49.564;17.412;2023-04-26T12:58:49;98073.00;;;10.14;46.57
73429;BME280;61643;49.564;17.412;2023-04-26T13:01:15;98069.09;;;10.32;47.58
73429;BME280;61643;49.564;17.412;2023-04-26T13:03:41;98065.69;;;10.42;48.31
73429;BME280;61643;49.564;17.412;2023-04-26T13:06:08;98058.94;;;10.39;45.40
73429;BME280;61643;49.564;17.412;2023-04-26T13:08:34;98067.84;;;10.45;47.71
73429;BME280;61643;49.564;17.412;2023-04-26T13:11:00;98072.91;;;10.36;46.56
73429;BME280;61643;49.564;17.412;2023-04-26T13:13:26;98071.50;;;9.97;47.09
73429;BME280;61643;49.564;17.412;2023-04-26T13:15:52;98080.34;;;9.65;47.46
73429;BME280;61643;49.564;17.412;2023-04-26T13:18:18;98076.16;;;9.26;47.79